sensor_id;sensor_type;location;lat;lon;timestamp;pressure;altitude;pressure_sealevel;temperature;humidity
10668;BME280;5382;42.136;24.796;2024-01-16T00:01:46;98634.22;;;2.68;100.00
10668;BME280;5382;42.136;24.796;2024-01-16T00:04:13;98635.63;;;2.73;100.00
10668;BME280;5382;42.136;24.796;2024-01-16T00:06:42;98627.16;;;2.70;100.00
10668;BME280;5382;42.136;24.796;2024-01-16T00:09:09;98626.88;;;2.74;100.00
10668;BME280;5382;42.136;24.796;2024-01-16T00:11:40;98623.69;;;2.83;100.00
10668;BME280;5382;42.136;24.796;2024-01-16T00:14:07;98616.16;;;2.79;100.00
10668;BME280;5382;42.136;24.796;2024-01-16T00:16:34;98613.81;;;2.89;100.00
10668;BME280;5382;42.136;24.796;2024-01-16T00:19:07;98612.44;;;2.69;100.00
10668;BME280;5382;42.136;24.796;2024-01-16T00:21:38;98623.34;;;2.61;100.00
10668;BME280;5382;42.136;24.796;2024-01-16T00:24:07;98635.63;;;2.59;100.00
10668;BME280;5382;42.136;24.796;2024-01-16T00:26:34;98631.44;;;2.56;100.00
10668;BME280;5382;42.136;24.796;2024-01-16T00:29:00;98632.47;;;2.54;100.00
10668;BME280;5382;42.136;24.796;2024-01-16T00:31:27;98644.03;;;2.64;100.00
10668;BME280;5382;42.136;24.796;2024-01-16T00:33:54;98653.28;;;2.70;100.00
10668;BME280;5382;42.136;24.796;2024-01-16T00:36:21;98644.03;;;2.78;100.00
10668;BME280;5382;42.136;24.796;2024-01-16T00:38:48;98634.16;;;2.69;100.00
10668;BME280;5382;42.136;24.796;2024-01-16T00:41:17;98633.22;;;2.70;100.00
10668;BME280;5382;42.136;24.796;2024-01-16T00:43:44;98641.16;;;2.69;100.00
10668;BME280;5382;42.136;24.796;2024-01-16T00:46:11;98645.91;;;2.76;100.00
10668;BME280;5382;42.136;24.796;2024-01-16T00:48:38;98631.53;;;2.69;100.00
10668;BME280;5382;42.136;24.796;2024-01-16T00:51:05;98639.47;;;2.68;100.00
10668;BME280;5382;42.136;24.796;2024-01-16T00:53:32;98621.75;;;2.58;100.00
10668;BME280;5382;42.136;24.796;2024-01-16T00:55:59;98613.91;;;2.73;100.00
10668;BME280;5382;42.136;24.796;2024-01-16T00:58:27;98619.13;;;2.58;100.00
10668;BME280;5382;42.136;24.796;2024-01-16T01:00:54;98636.72;;;2.55;100.00
10668;BME280;5382;42.136;24.796;2024-01-16T01:03:21;98617.69;;;2.53;100.00
10668;BME280;5382;42.136;24.796;2024-01-16T01:05:48;98617.91;;;2.50;100.00
10668;BME280;5382;42.136;24.796;2024-01-16T01:08:16;98609.59;;;2.43;100.00
10668;BME280;5382;42.136;24.796;2024-01-16T01:10:43;98603.72;;;2.39;100.00
10668;BME280;5382;42.136;24.796;2024-01-16T01:13:10;98600.44;;;2.36;100.00
10668;BME280;5382;42.136;24.796;2024-01-16T01:15:39;98588.31;;;2.35;100.00
10668;BME280;5382;42.136;24.796;2024-01-16T01:18:06;98584.75;;;2.22;100.00
10668;BME280;5382;42.136;24.796;2024-01-16T01:20:33;98600.44;;;2.36;100.00
10668;BME280;5382;42.136;24.796;2024-01-16T01:23:00;98602.50;;;2.31;100.00
10668;BME280;5382;42.136;24.796;2024-01-16T01:25:27;98593.00;;;2.30;100.00
10668;BME280;5382;42.136;24.796;2024-01-16T01:27:54;98575.81;;;2.26;100.00
10668;BME280;5382;42.136;24.796;2024-01-16T01:30:21;98580.03;;;2.28;100.00
10668;BME280;5382;42.136;24.796;2024-01-16T01:32:49;98576.91;;;2.22;100.00
10668;BME280;5382;42.136;24.796;2024-01-16T01:35:17;98564.06;;;2.18;100.00
10668;BME280;5382;42.136;24.796;2024-01-16T01:37:45;98559.22;;;2.12;100.00
10668;BME280;5382;42.136;24.796;2024-01-16T01:40:12;98571.44;;;2.12;100.00
10668;BME280;5382;42.136;24.796;2024-01-16T01:42:41;98579.97;;;2.14;100.00
10668;BME280;5382;42.136;24.796;2024-01-16T01:45:09;98578.41;;;2.11;100.00
10668;BME280;5382;42.136;24.796;2024-01-16T01:47:36;98584.56;;;2.10;100.00
10668;BME280;5382;42.136;24.796;2024-01-16T01:50:06;98578.88;;;2.18;100.00
10668;BME280;5382;42.136;24.796;2024-01-16T01:52:34;98554.06;;;1.96;100.00
10668;BME280;5382;42.136;24.796;2024-01-16T01:55:03;98602.38;;;2.18;100.00
10668;BME280;5382;42.136;24.796;2024-01-16T01:57:33;98584.25;;;2.01;100.00
10668;BME280;5382;42.136;24.796;2024-01-16T02:00:00;98593.75;;;2.02;100.00
10668;BME280;5382;42.136;24.796;2024-01-16T02:02:29;98590.28;;;2.01;100.00
10668;BME280;5382;42.136;24.796;2024-01-16T02:04:56;98583.78;;;2.08;100.00
10668;BME280;5382;42.136;24.796;2024-01-16T02:07:25;98587.91;;;2.12;100.00
10668;BME280;5382;42.136;24.796;2024-01-16T02:09:52;98588.19;;;2.08;100.00
10668;BME280;5382;42.136;24.796;2024-01-16T02:12:19;98583.16;;;2.05;100.00
10668;BME280;5382;42.136;24.796;2024-01-16T02:14:46;98595.63;;;2.00;100.00
10668;BME280;5382;42.136;24.796;2024-01-16T02:17:13;98595.63;;;2.00;100.00
10668;BME280;5382;42.136;24.796;2024-01-16T02:19:40;98593.59;;;2.05;100.00
10668;BME280;5382;42.136;24.796;2024-01-16T02:22:09;98590.03;;;2.06;100.00
10668;BME280;5382;42.136;24.796;2024-01-16T02:24:41;98602.06;;;2.08;100.00
10668;BME280;5382;42.136;24.796;2024-01-16T02:27:08;98614.66;;;2.16;100.00
10668;BME280;5382;42.136;24.796;2024-01-16T02:29:40;98607.25;;;1.94;100.00
10668;BME280;5382;42.136;24.796;2024-01-16T02:32:07;98614.78;;;1.99;100.00
10668;BME280;5382;42.136;24.796;2024-01-16T02:34:34;98613.88;;;2.00;100.00
10668;BME280;5382;42.136;24.796;2024-01-16T02:37:01;98614.22;;;1.93;100.00
10668;BME280;5382;42.136;24.796;2024-01-16T02:39:28;98612.09;;;2.00;100.00
10668;BME280;5382;42.136;24.796;2024-01-16T02:41:56;98612.94;;;2.01;100.00
10668;BME280;5382;42.136;24.796;2024-01-16T02:44:23;98617.00;;;1.90;100.00
10668;BME280;5382;42.136;24.796;2024-01-16T02:46:50;98613.88;;;2.00;100.00
10668;BME280;5382;42.136;24.796;2024-01-16T02:49:17;98611.25;;;2.00;100.00
10668;BME280;5382;42.136;24.796;2024-01-16T02:51:44;98611.00;;;2.04;100.00
10668;BME280;5382;42.136;24.796;2024-01-16T02:54:11;98599.00;;;1.86;100.00
10668;BME280;5382;42.136;24.796;2024-01-16T02:56:41;98601.91;;;1.81;100.00
10668;BME280;5382;42.136;24.796;2024-01-16T02:59:09;98611.81;;;1.74;100.00
10668;BME280;5382;42.136;24.796;2024-01-16T03:01:36;98619.75;;;1.73;100.00
10668;BME280;5382;42.136;24.796;2024-01-16T03:04:03;98599.75;;;1.26;100.00
10668;BME280;5382;42.136;24.796;2024-01-16T03:06:30;98626.81;;;1.23;100.00
10668;BME280;5382;42.136;24.796;2024-01-16T03:08:57;98634.03;;;1.34;100.00
10668;BME280;5382;42.136;24.796;2024-01-16T03:11:24;98627.16;;;1.33;100.00
10668;BME280;5382;42.136;24.796;2024-01-16T03:13:51;98612.03;;;1.40;100.00
10668;BME280;5382;42.136;24.796;2024-01-16T03:16:20;98622.28;;;1.43;100.00
10668;BME280;5382;42.136;24.796;2024-01-16T03:18:47;98625.66;;;1.45;100.00
10668;BME280;5382;42.136;24.796;2024-01-16T03:21:14;98626.66;;;1.42;100.00
10668;BME280;5382;42.136;24.796;2024-01-16T03:23:41;98637.09;;;1.42;100.00
10668;BME280;5382;42.136;24.796;2024-01-16T03:26:12;98618.25;;;1.53;100.00
10668;BME280;5382;42.136;24.796;2024-01-16T03:28:40;98633.22;;;1.65;100.00
10668;BME280;5382;42.136;24.796;2024-01-16T03:31:07;98610.66;;;1.64;100.00
10668;BME280;5382;42.136;24.796;2024-01-16T03:33:35;98609.81;;;1.64;100.00
10668;BME280;5382;42.136;24.796;2024-01-16T03:36:08;98623.00;;;1.77;100.00
10668;BME280;5382;42.136;24.796;2024-01-16T03:38:36;98616.97;;;1.76;100.00
10668;BME280;5382;42.136;24.796;2024-01-16T03:41:03;98637.72;;;1.78;100.00
10668;BME280;5382;42.136;24.796;2024-01-16T03:43:32;98642.28;;;1.74;100.00
10668;BME280;5382;42.136;24.796;2024-01-16T03:45:59;98654.91;;;1.66;100.00
10668;BME280;5382;42.136;24.796;2024-01-16T03:48:26;98647.31;;;1.61;100.00
10668;BME280;5382;42.136;24.796;2024-01-16T03:50:58;98645.38;;;1.49;100.00
10668;BME280;5382;42.136;24.796;2024-01-16T03:53:25;98662.88;;;1.47;100.00
10668;BME280;5382;42.136;24.796;2024-01-16T03:55:53;98667.84;;;1.51;100.00
10668;BME280;5382;42.136;24.796;2024-01-16T03:58:20;98654.03;;;1.49;100.00
10668;BME280;5382;42.136;24.796;2024-01-16T04:00:48;98669.38;;;1.56;100.00
10668;BME280;5382;42.136;24.796;2024-01-16T04:03:16;98666.47;;;1.44;100.00
10668;BME280;5382;42.136;24.796;2024-01-16T04:05:43;98695.34;;;1.57;100.00
10668;BME280;5382;42.136;24.796;2024-01-16T04:08:11;98695.19;;;1.60;100.00
10668;BME280;5382;42.136;24.796;2024-01-16T04:10:39;98702.97;;;1.44;100.00
10668;BME280;5382;42.136;24.796;2024-01-16T04:13:06;98695.91;;;1.46;100.00
10668;BME280;5382;42.136;24.796;2024-01-16T04:15:33;98700.34;;;1.28;100.00
10668;BME280;5382;42.136;24.796;2024-01-16T04:18:00;98711.47;;;1.32;100.00
10668;BME280;5382;42.136;24.796;2024-01-16T04:20:26;98716.50;;;1.35;100.00
10668;BME280;5382;42.136;24.796;2024-01-16T04:22:53;98708.97;;;1.13;100.00
10668;BME280;5382;42.136;24.796;2024-01-16T04:25:22;98718.22;;;1.19;100.00
10668;BME280;5382;42.136;24.796;2024-01-16T04:27:49;98727.63;;;1.21;100.00
10668;BME280;5382;42.136;24.796;2024-01-16T04:30:16;98722.78;;;1.31;100.00
10668;BME280;5382;42.136;24.796;2024-01-16T04:32:45;98722.16;;;1.43;100.00
10668;BME280;5382;42.136;24.796;2024-01-16T04:35:12;98719.13;;;1.51;100.00
10668;BME280;5382;42.136;24.796;2024-01-16T04:37:40;98724.19;;;1.54;100.00
10668;BME280;5382;42.136;24.796;2024-01-16T04:40:08;98730.16;;;1.72;100.00
10668;BME280;5382;42.136;24.796;2024-01-16T04:42:36;98739.16;;;1.82;100.00
10668;BME280;5382;42.136;24.796;2024-01-16T04:45:04;98742.59;;;1.83;100.00
10668;BME280;5382;42.136;24.796;2024-01-16T04:47:31;98755.34;;;1.89;100.00
10668;BME280;5382;42.136;24.796;2024-01-16T04:49:59;98742.38;;;1.87;100.00
10668;BME280;5382;42.136;24.796;2024-01-16T04:52:26;98749.25;;;1.88;100.00
10668;BME280;5382;42.136;24.796;2024-01-16T04:54:53;98761.38;;;1.89;100.00
10668;BME280;5382;42.136;24.796;2024-01-16T04:57:20;98769.81;;;1.94;100.00
10668;BME280;5382;42.136;24.796;2024-01-16T04:59:48;98774.41;;;2.05;100.00
10668;BME280;5382;42.136;24.796;2024-01-16T05:02:15;98778.56;;;2.09;100.00
10668;BME280;5382;42.136;24.796;2024-01-16T05:04:42;98765.09;;;2.17;100.00
10668;BME280;5382;42.136;24.796;2024-01-16T05:07:09;98776.94;;;2.23;100.00
10668;BME280;5382;42.136;24.796;2024-01-16T05:09:36;98791.91;;;2.35;100.00
10668;BME280;5382;42.136;24.796;2024-01-16T05:12:04;98798.72;;;2.37;100.00
10668;BME280;5382;42.136;24.796;2024-01-16T05:14:31;98796.09;;;2.37;100.00
10668;BME280;5382;42.136;24.796;2024-01-16T05:16:59;98792.41;;;2.42;100.00
10668;BME280;5382;42.136;24.796;2024-01-16T05:19:26;98795.56;;;2.32;100.00
10668;BME280;5382;42.136;24.796;2024-01-16T05:21:53;98797.97;;;2.35;100.00
10668;BME280;5382;42.136;24.796;2024-01-16T05:24:20;98804.47;;;2.28;100.00
10668;BME280;5382;42.136;24.796;2024-01-16T05:26:47;98811.94;;;2.34;100.00
10668;BME280;5382;42.136;24.796;2024-01-16T05:29:14;98813.72;;;2.18;100.00
10668;BME280;5382;42.136;24.796;2024-01-16T05:31:41;98821.97;;;2.26;100.00
10668;BME280;5382;42.136;24.796;2024-01-16T05:34:10;98827.38;;;2.23;100.00
10668;BME280;5382;42.136;24.796;2024-01-16T05:36:37;98832.59;;;2.23;100.00
10668;BME280;5382;42.136;24.796;2024-01-16T05:39:04;98841.66;;;2.16;100.00
10668;BME280;5382;42.136;24.796;2024-01-16T05:41:33;98854.22;;;2.09;100.00
10668;BME280;5382;42.136;24.796;2024-01-16T05:44:00;98866.25;;;2.12;100.00
10668;BME280;5382;42.136;24.796;2024-01-16T05:46:31;98860.53;;;2.21;100.00
10668;BME280;5382;42.136;24.796;2024-01-16T05:48:58;98863.81;;;2.25;100.00
10668;BME280;5382;42.136;24.796;2024-01-16T05:51:27;98879.06;;;2.32;100.00
10668;BME280;5382;42.136;24.796;2024-01-16T05:53:55;98890.66;;;2.43;100.00
10668;BME280;5382;42.136;24.796;2024-01-16T05:56:22;98880.81;;;2.48;100.00
10668;BME280;5382;42.136;24.796;2024-01-16T05:58:49;98887.31;;;2.56;100.00
10668;BME280;5382;42.136;24.796;2024-01-16T06:01:15;98901.72;;;2.64;100.00
10668;BME280;5382;42.136;24.796;2024-01-16T06:03:42;98911.56;;;2.74;100.00
10668;BME280;5382;42.136;24.796;2024-01-16T06:06:12;98909.19;;;2.86;100.00
10668;BME280;5382;42.136;24.796;2024-01-16T06:08:40;98922.41;;;2.98;100.00
10668;BME280;5382;42.136;24.796;2024-01-16T06:11:07;98921.72;;;3.11;100.00
10668;BME280;5382;42.136;24.796;2024-01-16T06:13:34;98926.50;;;3.18;100.00
10668;BME280;5382;42.136;24.796;2024-01-16T06:16:02;98935.91;;;3.37;100.00
10668;BME280;5382;42.136;24.796;2024-01-16T06:18:30;98936.09;;;3.48;100.00
10668;BME280;5382;42.136;24.796;2024-01-16T06:20:57;98958.69;;;3.65;100.00
10668;BME280;5382;42.136;24.796;2024-01-16T06:23:24;98958.88;;;3.76;100.00
10668;BME280;5382;42.136;24.796;2024-01-16T06:25:52;98967.53;;;3.92;100.00
10668;BME280;5382;42.136;24.796;2024-01-16T06:28:19;98985.94;;;4.20;100.00
10668;BME280;5382;42.136;24.796;2024-01-16T06:30:45;98984.25;;;4.33;100.00
10668;BME280;5382;42.136;24.796;2024-01-16T06:33:12;98995.13;;;4.55;100.00
10668;BME280;5382;42.136;24.796;2024-01-16T06:35:39;98986.41;;;4.69;100.00
10668;BME280;5382;42.136;24.796;2024-01-16T06:38:06;98992.06;;;4.90;100.00
10668;BME280;5382;42.136;24.796;2024-01-16T06:40:33;98998.03;;;5.07;100.00
10668;BME280;5382;42.136;24.796;2024-01-16T06:43:01;99007.47;;;4.68;100.00
10668;BME280;5382;42.136;24.796;2024-01-16T06:45:28;99006.69;;;4.23;100.00
10668;BME280;5382;42.136;24.796;2024-01-16T06:47:55;99007.94;;;3.72;100.00
10668;BME280;5382;42.136;24.796;2024-01-16T06:50:22;99011.94;;;3.48;100.00
10668;BME280;5382;42.136;24.796;2024-01-16T06:52:49;99017.78;;;3.37;100.00
10668;BME280;5382;42.136;24.796;2024-01-16T06:55:16;99022.41;;;3.48;100.00
10668;BME280;5382;42.136;24.796;2024-01-16T06:57:43;99011.44;;;4.02;100.00
10668;BME280;5382;42.136;24.796;2024-01-16T07:00:15;99034.03;;;4.62;100.00
10668;BME280;5382;42.136;24.796;2024-01-16T07:02:42;99023.66;;;5.16;100.00
10668;BME280;5382;42.136;24.796;2024-01-16T07:05:11;99049.16;;;5.68;100.00
10668;BME280;5382;42.136;24.796;2024-01-16T07:07:38;99038.06;;;6.17;100.00
10668;BME280;5382;42.136;24.796;2024-01-16T07:10:07;99056.66;;;6.52;100.00
10668;BME280;5382;42.136;24.796;2024-01-16T07:12:39;99066.31;;;6.77;100.00
10668;BME280;5382;42.136;24.796;2024-01-16T07:15:06;99083.97;;;7.01;100.00
10668;BME280;5382;42.136;24.796;2024-01-16T07:17:35;99086.47;;;7.15;100.00
10668;BME280;5382;42.136;24.796;2024-01-16T07:20:02;99095.41;;;7.26;100.00
10668;BME280;5382;42.136;24.796;2024-01-16T07:22:29;99098.00;;;7.38;100.00
10668;BME280;5382;42.136;24.796;2024-01-16T07:24:56;99108.91;;;7.45;100.00
10668;BME280;5382;42.136;24.796;2024-01-16T07:27:23;99131.53;;;7.48;100.00
10668;BME280;5382;42.136;24.796;2024-01-16T07:29:50;99127.84;;;7.50;100.00
10668;BME280;5382;42.136;24.796;2024-01-16T07:32:17;99133.09;;;7.50;100.00
10668;BME280;5382;42.136;24.796;2024-01-16T07:34:45;99111.97;;;7.39;100.00
10668;BME280;5382;42.136;24.796;2024-01-16T07:37:12;99134.56;;;7.54;100.00
10668;BME280;5382;42.136;24.796;2024-01-16T07:39:41;99133.53;;;7.57;100.00
10668;BME280;5382;42.136;24.796;2024-01-16T07:42:08;99154.56;;;7.57;100.00
10668;BME280;5382;42.136;24.796;2024-01-16T07:44:35;99155.78;;;7.64;100.00
10668;BME280;5382;42.136;24.796;2024-01-16T07:47:02;99163.00;;;7.62;100.00
10668;BME280;5382;42.136;24.796;2024-01-16T07:49:29;99169.19;;;7.61;100.00
10668;BME280;5382;42.136;24.796;2024-01-16T07:51:57;99186.47;;;7.65;100.00
10668;BME280;5382;42.136;24.796;2024-01-16T07:54:24;99168.81;;;7.54;100.00
10668;BME280;5382;42.136;24.796;2024-01-16T07:56:51;99204.06;;;7.64;100.00
10668;BME280;5382;42.136;24.796;2024-01-16T07:59:18;99228.69;;;7.63;100.00
10668;BME280;5382;42.136;24.796;2024-01-16T08:01:45;99205.94;;;7.62;100.00
10668;BME280;5382;42.136;24.796;2024-01-16T08:04:12;99225.72;;;7.68;100.00
10668;BME280;5382;42.136;24.796;2024-01-16T08:06:59;99194.16;;;7.55;100.00
10668;BME280;5382;42.136;24.796;2024-01-16T08:09:26;99216.78;;;7.71;100.00
10668;BME280;5382;42.136;24.796;2024-01-16T08:11:53;99228.66;;;7.76;100.00
10668;BME280;5382;42.136;24.796;2024-01-16T08:14:20;99240.44;;;7.83;100.00
10668;BME280;5382;42.136;24.796;2024-01-16T08:16:47;99238.56;;;7.85;100.00
10668;BME280;5382;42.136;24.796;2024-01-16T08:19:14;99217.38;;;7.74;100.00
10668;BME280;5382;42.136;24.796;2024-01-16T08:21:41;99236.16;;;7.82;100.00
10668;BME280;5382;42.136;24.796;2024-01-16T08:24:10;99248.56;;;7.80;100.00
10668;BME280;5382;42.136;24.796;2024-01-16T08:26:36;99249.72;;;7.76;100.00
10668;BME280;5382;42.136;24.796;2024-01-16T08:29:03;99268.81;;;7.80;100.00
10668;BME280;5382;42.136;24.796;2024-01-16T08:31:30;99265.22;;;7.81;100.00
10668;BME280;5382;42.136;24.796;2024-01-16T08:33:57;99260.69;;;7.83;100.00
10668;BME280;5382;42.136;24.796;2024-01-16T08:36:24;99273.00;;;7.82;100.00
10668;BME280;5382;42.136;24.796;2024-01-16T08:38:51;99290.16;;;7.88;100.00
10668;BME280;5382;42.136;24.796;2024-01-16T08:41:21;99294.25;;;7.92;100.00
10668;BME280;5382;42.136;24.796;2024-01-16T08:43:48;99307.56;;;7.91;100.00
10668;BME280;5382;42.136;24.796;2024-01-16T08:46:16;99314.06;;;7.98;100.00
10668;BME280;5382;42.136;24.796;2024-01-16T08:48:45;99320.38;;;8.08;100.00
10668;BME280;5382;42.136;24.796;2024-01-16T08:51:12;99316.69;;;8.11;100.00
10668;BME280;5382;42.136;24.796;2024-01-16T08:53:39;99325.81;;;8.18;100.00
10668;BME280;5382;42.136;24.796;2024-01-16T08:56:07;99302.59;;;7.86;100.00
10668;BME280;5382;42.136;24.796;2024-01-16T08:58:38;99343.34;;;8.19;100.00
10668;BME280;5382;42.136;24.796;2024-01-16T09:01:05;99370.19;;;8.24;100.00
10668;BME280;5382;42.136;24.796;2024-01-16T09:03:38;99374.41;;;8.26;100.00
10668;BME280;5382;42.136;24.796;2024-01-16T09:06:06;99358.78;;;8.23;100.00
10668;BME280;5382;42.136;24.796;2024-01-16T09:08:34;99363.13;;;8.24;100.00
10668;BME280;5382;42.136;24.796;2024-01-16T09:11:01;99356.56;;;8.30;100.00
10668;BME280;5382;42.136;24.796;2024-01-16T09:13:28;99358.59;;;8.39;100.00
10668;BME280;5382;42.136;24.796;2024-01-16T09:15:56;99376.84;;;8.42;100.00
10668;BME280;5382;42.136;24.796;2024-01-16T09:18:23;99359.81;;;8.46;100.00
10668;BME280;5382;42.136;24.796;2024-01-16T09:20:50;99375.63;;;8.46;100.00
10668;BME280;5382;42.136;24.796;2024-01-16T09:23:17;99362.66;;;8.56;100.00
10668;BME280;5382;42.136;24.796;2024-01-16T09:25:44;99397.06;;;8.55;100.00
10668;BME280;5382;42.136;24.796;2024-01-16T09:28:11;99372.63;;;8.64;100.00
10668;BME280;5382;42.136;24.796;2024-01-16T09:30:38;99400.16;;;8.72;100.00
10668;BME280;5382;42.136;24.796;2024-01-16T09:33:07;99379.81;;;8.62;100.00
10668;BME280;5382;42.136;24.796;2024-01-16T09:35:36;99373.13;;;8.45;100.00
10668;BME280;5382;42.136;24.796;2024-01-16T09:38:03;99403.25;;;8.54;100.00
10668;BME280;5382;42.136;24.796;2024-01-16T09:40:31;99420.03;;;8.52;100.00
10668;BME280;5382;42.136;24.796;2024-01-16T09:42:59;99403.22;;;8.66;100.00
10668;BME280;5382;42.136;24.796;2024-01-16T09:45:26;99408.28;;;8.69;97.81
10668;BME280;5382;42.136;24.796;2024-01-16T09:47:56;99420.00;;;8.65;94.66
10668;BME280;5382;42.136;24.796;2024-01-16T09:50:25;99396.50;;;8.62;93.37
10668;BME280;5382;42.136;24.796;2024-01-16T09:52:52;99428.56;;;8.56;92.77
10668;BME280;5382;42.136;24.796;2024-01-16T09:55:19;99398.44;;;8.47;94.55
10668;BME280;5382;42.136;24.796;2024-01-16T09:57:51;99410.81;;;8.71;92.59
10668;BME280;5382;42.136;24.796;2024-01-16T10:00:19;99420.63;;;8.69;90.99
10668;BME280;5382;42.136;24.796;2024-01-16T10:02:46;99423.53;;;8.77;90.29
10668;BME280;5382;42.136;24.796;2024-01-16T10:05:13;99442.75;;;8.79;89.14
10668;BME280;5382;42.136;24.796;2024-01-16T10:07:42;99427.66;;;8.81;88.51
10668;BME280;5382;42.136;24.796;2024-01-16T10:10:11;99425.06;;;8.92;86.29
10668;BME280;5382;42.136;24.796;2024-01-16T10:12:40;99450.84;;;8.89;86.06
10668;BME280;5382;42.136;24.796;2024-01-16T10:15:09;99441.09;;;9.02;85.30
10668;BME280;5382;42.136;24.796;2024-01-16T10:17:37;99443.63;;;9.04;85.82
10668;BME280;5382;42.136;24.796;2024-01-16T10:20:06;99431.94;;;9.19;84.61
10668;BME280;5382;42.136;24.796;2024-01-16T10:22:34;99476.50;;;9.11;83.20
10668;BME280;5382;42.136;24.796;2024-01-16T10:25:09;99464.28;;;9.10;83.19
10668;BME280;5382;42.136;24.796;2024-01-16T10:27:38;99442.28;;;9.22;82.73
10668;BME280;5382;42.136;24.796;2024-01-16T10:30:06;99429.09;;;9.22;82.95
10668;BME280;5382;42.136;24.796;2024-01-16T10:32:34;99428.13;;;9.23;82.57
10668;BME280;5382;42.136;24.796;2024-01-16T10:35:06;99419.63;;;9.31;81.49
10668;BME280;5382;42.136;24.796;2024-01-16T10:37:44;99470.69;;;9.18;80.59
10668;BME280;5382;42.136;24.796;2024-01-16T10:40:16;99464.75;;;9.28;81.71
10668;BME280;5382;42.136;24.796;2024-01-16T10:42:45;99467.41;;;9.39;81.76
10668;BME280;5382;42.136;24.796;2024-01-16T10:45:17;99450.69;;;9.27;81.65
10668;BME280;5382;42.136;24.796;2024-01-16T10:47:46;99436.03;;;9.23;82.57
10668;BME280;5382;42.136;24.796;2024-01-16T10:50:13;99474.88;;;9.21;80.92
10668;BME280;5382;42.136;24.796;2024-01-16T10:52:48;99456.66;;;9.18;82.44
10668;BME280;5382;42.136;24.796;2024-01-16T10:55:20;99452.94;;;9.21;81.65
10668;BME280;5382;42.136;24.796;2024-01-16T10:57:48;99464.34;;;9.21;81.44
10668;BME280;5382;42.136;24.796;2024-01-16T11:00:18;99484.25;;;9.14;80.33
10668;BME280;5382;42.136;24.796;2024-01-16T11:02:49;99467.47;;;9.26;79.72
10668;BME280;5382;42.136;24.796;2024-01-16T11:05:17;99471.19;;;9.48;80.02
10668;BME280;5382;42.136;24.796;2024-01-16T11:07:44;99432.31;;;10.08;77.28
10668;BME280;5382;42.136;24.796;2024-01-16T11:10:12;99453.59;;;10.74;74.41
10668;BME280;5382;42.136;24.796;2024-01-16T11:12:41;99453.09;;;10.91;72.94
10668;BME280;5382;42.136;24.796;2024-01-16T11:15:10;99442.66;;;10.89;72.18
10668;BME280;5382;42.136;24.796;2024-01-16T11:17:38;99456.94;;;10.98;70.63
10668;BME280;5382;42.136;24.796;2024-01-16T11:20:08;99453.81;;;11.37;69.34
10668;BME280;5382;42.136;24.796;2024-01-16T11:22:38;99446.34;;;11.42;66.95
10668;BME280;5382;42.136;24.796;2024-01-16T11:25:10;99463.28;;;11.50;65.33
10668;BME280;5382;42.136;24.796;2024-01-16T11:27:38;99456.03;;;12.06;63.57
10668;BME280;5382;42.136;24.796;2024-01-16T11:30:08;99447.84;;;12.49;60.17
10668;BME280;5382;42.136;24.796;2024-01-16T11:32:37;99455.66;;;12.81;58.92
10668;BME280;5382;42.136;24.796;2024-01-16T11:35:06;99471.59;;;12.81;57.99
10668;BME280;5382;42.136;24.796;2024-01-16T11:37:35;99436.13;;;13.02;58.11
10668;BME280;5382;42.136;24.796;2024-01-16T11:40:23;99447.09;;;13.28;56.24
10668;BME280;5382;42.136;24.796;2024-01-16T11:42:52;99445.28;;;13.28;55.78
10668;BME280;5382;42.136;24.796;2024-01-16T11:45:51;99471.78;;;13.19;54.92
10668;BME280;5382;42.136;24.796;2024-01-16T11:48:19;99456.75;;;13.29;55.11
10668;BME280;5382;42.136;24.796;2024-01-16T11:50:46;99446.78;;;13.21;54.50
10668;BME280;5382;42.136;24.796;2024-01-16T11:53:32;99434.50;;;13.40;53.88
10668;BME280;5382;42.136;24.796;2024-01-16T11:59:03;99454.66;;;13.52;52.26
10668;BME280;5382;42.136;24.796;2024-01-16T12:01:38;99457.81;;;13.07;52.44
10668;BME280;5382;42.136;24.796;2024-01-16T12:04:08;99479.41;;;12.42;54.44
10668;BME280;5382;42.136;24.796;2024-01-16T12:06:36;99483.47;;;11.84;56.64
10668;BME280;5382;42.136;24.796;2024-01-16T12:09:13;99480.16;;;11.49;58.40
10668;BME280;5382;42.136;24.796;2024-01-16T12:11:40;99448.91;;;12.06;56.37
10668;BME280;5382;42.136;24.796;2024-01-16T12:14:09;99485.72;;;12.51;54.58
10668;BME280;5382;42.136;24.796;2024-01-16T12:16:37;99479.34;;;13.14;52.65
10668;BME280;5382;42.136;24.796;2024-01-16T12:19:05;99487.22;;;13.25;51.60
10668;BME280;5382;42.136;24.796;2024-01-16T12:21:34;99490.19;;;13.51;50.75
10668;BME280;5382;42.136;24.796;2024-01-16T12:24:02;99493.56;;;13.82;50.51
10668;BME280;5382;42.136;24.796;2024-01-16T12:26:29;99480.38;;;13.90;50.10
10668;BME280;5382;42.136;24.796;2024-01-16T12:28:57;99472.75;;;14.25;49.53
10668;BME280;5382;42.136;24.796;2024-01-16T12:31:25;99484.44;;;15.16;47.72
10668;BME280;5382;42.136;24.796;2024-01-16T12:34:04;99497.19;;;14.95;46.87
10668;BME280;5382;42.136;24.796;2024-01-16T12:36:32;99494.19;;;14.80;46.67
10668;BME280;5382;42.136;24.796;2024-01-16T12:38:59;99498.19;;;14.84;46.37
10668;BME280;5382;42.136;24.796;2024-01-16T12:41:28;99482.44;;;15.00;46.19
10668;BME280;5382;42.136;24.796;2024-01-16T12:43:57;99520.72;;;14.72;45.76
10668;BME280;5382;42.136;24.796;2024-01-16T12:46:25;99493.53;;;14.96;45.66
10668;BME280;5382;42.136;24.796;2024-01-16T12:49:00;99506.13;;;15.03;45.50
10668;BME280;5382;42.136;24.796;2024-01-16T12:51:27;99512.88;;;14.98;45.35
10668;BME280;5382;42.136;24.796;2024-01-16T12:54:10;99529.72;;;14.89;45.20
10668;BME280;5382;42.136;24.796;2024-01-16T12:56:37;99524.38;;;15.26;45.00
10668;BME280;5382;42.136;24.796;2024-01-16T12:59:09;99522.16;;;15.39;44.75
10668;BME280;5382;42.136;24.796;2024-01-16T13:01:39;99506.94;;;15.49;44.58
10668;BME280;5382;42.136;24.796;2024-01-16T13:04:09;99518.69;;;15.57;43.80
10668;BME280;5382;42.136;24.796;2024-01-16T13:06:36;99504.00;;;15.25;43.97
10668;BME280;5382;42.136;24.796;2024-01-16T13:09:07;99535.72;;;15.46;43.98
10668;BME280;5382;42.136;24.796;2024-01-16T13:11:45;99534.47;;;15.68;43.39